sensor_id;sensor_type;location;lat;lon;timestamp;pressure;altitude;pressure_sealevel;temperature;humidity
6567;BME280;3317;43.994;22.878;2023-04-01T00:01:10;99886.78;;;16.91;46.17
6567;BME280;3317;43.994;22.878;2023-04-01T00:03:39;99882.34;;;16.83;46.34
6567;BME280;3317;43.994;22.878;2023-04-01T00:06:06;99885.91;;;16.90;46.31
6567;BME280;3317;43.994;22.878;2023-04-01T00:08:33;99880.44;;;16.90;46.16
6567;BME280;3317;43.994;22.878;2023-04-01T00:11:02;99892.91;;;16.86;46.83
6567;BME280;3317;43.994;22.878;2023-04-01T00:13:29;99882.59;;;16.81;46.89
6567;BME280;3317;43.994;22.878;2023-04-01T00:15:56;99877.59;;;16.71;47.23
6567;BME280;3317;43.994;22.878;2023-04-01T00:18:23;99867.72;;;16.57;48.80
6567;BME280;3317;43.994;22.878;2023-04-01T00:20:51;99862.09;;;16.38;50.59
6567;BME280;3317;43.994;22.878;2023-04-01T00:23:19;99872.44;;;16.23;51.43
6567;BME280;3317;43.994;22.878;2023-04-01T00:25:47;99877.69;;;16.11;52.01
6567;BME280;3317;43.994;22.878;2023-04-01T00:28:17;99866.13;;;16.09;52.39
6567;BME280;3317;43.994;22.878;2023-04-01T00:30:45;99865.72;;;16.05;52.17
6567;BME280;3317;43.994;22.878;2023-04-01T00:33:12;99857.31;;;16.00;52.35
6567;BME280;3317;43.994;22.878;2023-04-01T00:35:39;99860.06;;;16.00;52.33
6567;BME280;3317;43.994;22.878;2023-04-01T00:38:07;99856.91;;;15.96;52.49
6567;BME280;3317;43.994;22.878;2023-04-01T00:40:35;99845.13;;;15.96;53.03
6567;BME280;3317;43.994;22.878;2023-04-01T00:43:03;99840.31;;;15.98;53.10
6567;BME280;3317;43.994;22.878;2023-04-01T00:45:34;99839.03;;;16.00;52.25
6567;BME280;3317;43.994;22.878;2023-04-01T00:48:05;99844.91;;;16.04;50.80
6567;BME280;3317;43.994;22.878;2023-04-01T00:50:34;99839.84;;;16.08;50.63
6567;BME280;3317;43.994;22.878;2023-04-01T00:53:02;99844.06;;;16.10;51.28
6567;BME280;3317;43.994;22.878;2023-04-01T00:55:32;99850.34;;;16.11;52.15
6567;BME280;3317;43.994;22.878;2023-04-01T00:58:02;99845.75;;;16.11;52.44
6567;BME280;3317;43.994;22.878;2023-04-01T01:00:30;99842.81;;;16.13;51.84
6567;BME280;3317;43.994;22.878;2023-04-01T01:02:58;99830.59;;;16.15;52.23
6567;BME280;3317;43.994;22.878;2023-04-01T01:05:33;99825.13;;;16.09;52.08
6567;BME280;3317;43.994;22.878;2023-04-01T01:08:12;99828.09;;;16.21;50.88
6567;BME280;3317;43.994;22.878;2023-04-01T01:10:42;99825.97;;;16.23;49.95
6567;BME280;3317;43.994;22.878;2023-04-01T01:13:17;99819.25;;;16.25;48.92
6567;BME280;3317;43.994;22.878;2023-04-01T01:15:52;99818.19;;;16.26;49.38
6567;BME280;3317;43.994;22.878;2023-04-01T01:18:30;99814.63;;;16.19;49.16
6567;BME280;3317;43.994;22.878;2023-04-01T01:21:26;99816.53;;;16.18;49.01
6567;BME280;3317;43.994;22.878;2023-04-01T01:27:08;99806.63;;;16.17;49.28
6567;BME280;3317;43.994;22.878;2023-04-01T01:30:00;99805.38;;;16.13;49.64
6567;BME280;3317;43.994;22.878;2023-04-01T01:32:44;99800.34;;;16.10;49.59
6567;BME280;3317;43.994;22.878;2023-04-01T01:35:20;99802.22;;;16.10;50.58
6567;BME280;3317;43.994;22.878;2023-04-01T01:37:50;99794.91;;;16.03;50.50
6567;BME280;3317;43.994;22.878;2023-04-01T01:40:19;99781.88;;;15.99;50.83
6567;BME280;3317;43.994;22.878;2023-04-01T01:42:50;99785.03;;;15.96;50.86
6567;BME280;3317;43.994;22.878;2023-04-01T01:45:20;99784.41;;;15.94;51.47
6567;BME280;3317;43.994;22.878;2023-04-01T01:47:49;99773.66;;;15.85;51.33
6567;BME280;3317;43.994;22.878;2023-04-01T01:50:19;99772.19;;;15.76;51.43
6567;BME280;3317;43.994;22.878;2023-04-01T01:52:46;99773.25;;;15.68;51.42
6567;BME280;3317;43.994;22.878;2023-04-01T01:55:25;99768.84;;;15.67;51.30
6567;BME280;3317;43.994;22.878;2023-04-01T01:57:54;99762.34;;;15.61;51.68
6567;BME280;3317;43.994;22.878;2023-04-01T02:00:22;99765.06;;;15.61;51.27
6567;BME280;3317;43.994;22.878;2023-04-01T02:02:50;99769.91;;;15.59;51.04
6567;BME280;3317;43.994;22.878;2023-04-01T02:05:20;99773.47;;;15.60;51.65
6567;BME280;3317;43.994;22.878;2023-04-01T02:07:51;99755.41;;;15.52;52.40
6567;BME280;3317;43.994;22.878;2023-04-01T02:10:25;99760.03;;;15.58;52.63
6567;BME280;3317;43.994;22.878;2023-04-01T02:12:53;99759.19;;;15.51;54.01
6567;BME280;3317;43.994;22.878;2023-04-01T02:15:24;99781.66;;;15.40;54.35
6567;BME280;3317;43.994;22.878;2023-04-01T02:17:53;99774.75;;;15.30;54.79
6567;BME280;3317;43.994;22.878;2023-04-01T02:20:24;99776.19;;;15.26;55.36
6567;BME280;3317;43.994;22.878;2023-04-01T02:22:53;99780.38;;;15.22;55.67
6567;BME280;3317;43.994;22.878;2023-04-01T02:25:25;99776.41;;;15.18;55.07
6567;BME280;3317;43.994;22.878;2023-04-01T02:27:54;99789.44;;;15.29;54.78
6567;BME280;3317;43.994;22.878;2023-04-01T02:30:25;99782.69;;;15.32;55.00
6567;BME280;3317;43.994;22.878;2023-04-01T02:32:53;99790.28;;;15.37;54.86
6567;BME280;3317;43.994;22.878;2023-04-01T02:35:23;99793.22;;;15.42;54.81
6567;BME280;3317;43.994;22.878;2023-04-01T02:37:51;99789.84;;;15.46;55.27
6567;BME280;3317;43.994;22.878;2023-04-01T02:40:19;99788.41;;;15.51;55.09
6567;BME280;3317;43.994;22.878;2023-04-01T02:42:46;99791.75;;;15.53;55.27
6567;BME280;3317;43.994;22.878;2023-04-01T02:45:14;99783.38;;;15.54;55.06
6567;BME280;3317;43.994;22.878;2023-04-01T02:47:41;99788.16;;;15.52;55.24
6567;BME280;3317;43.994;22.878;2023-04-01T02:50:08;99781.47;;;15.48;55.76
6567;BME280;3317;43.994;22.878;2023-04-01T02:52:37;99784.00;;;15.49;55.56
6567;BME280;3317;43.994;22.878;2023-04-01T02:55:05;99782.94;;;15.44;55.58
6567;BME280;3317;43.994;22.878;2023-04-01T02:57:32;99776.19;;;15.33;56.00
6567;BME280;3317;43.994;22.878;2023-04-01T02:59:59;99771.38;;;15.28;56.13
6567;BME280;3317;43.994;22.878;2023-04-01T03:02:26;99761.91;;;15.24;55.50
6567;BME280;3317;43.994;22.878;2023-04-01T03:04:53;99770.09;;;15.31;54.44
6567;BME280;3317;43.994;22.878;2023-04-01T03:07:20;99771.78;;;15.32;53.98
6567;BME280;3317;43.994;22.878;2023-04-01T03:09:48;99760.66;;;15.33;53.28
6567;BME280;3317;43.994;22.878;2023-04-01T03:12:15;99764.03;;;15.35;54.01
6567;BME280;3317;43.994;22.878;2023-04-01T03:14:42;99764.44;;;15.39;53.51
6567;BME280;3317;43.994;22.878;2023-04-01T03:17:09;99756.25;;;15.39;53.17
6567;BME280;3317;43.994;22.878;2023-04-01T03:19:36;99749.13;;;15.38;54.42
6567;BME280;3317;43.994;22.878;2023-04-01T03:22:03;99751.84;;;15.38;54.77
6567;BME280;3317;43.994;22.878;2023-04-01T03:24:30;99747.44;;;15.30;54.37
6567;BME280;3317;43.994;22.878;2023-04-01T03:26:58;99745.34;;;15.26;54.87
6567;BME280;3317;43.994;22.878;2023-04-01T03:29:25;99753.94;;;15.16;55.02
6567;BME280;3317;43.994;22.878;2023-04-01T03:31:52;99746.13;;;14.99;54.74
6567;BME280;3317;43.994;22.878;2023-04-01T03:34:19;99744.84;;;14.82;56.00
6567;BME280;3317;43.994;22.878;2023-04-01T03:36:46;99743.72;;;14.62;57.59
6567;BME280;3317;43.994;22.878;2023-04-01T03:39:13;99751.41;;;14.45;58.98
6567;BME280;3317;43.994;22.878;2023-04-01T03:41:39;99745.91;;;14.32;59.23
6567;BME280;3317;43.994;22.878;2023-04-01T03:44:08;99749.66;;;14.24;59.85
6567;BME280;3317;43.994;22.878;2023-04-01T03:46:35;99744.19;;;14.17;59.75
6567;BME280;3317;43.994;22.878;2023-04-01T03:49:02;99740.81;;;14.15;59.97
6567;BME280;3317;43.994;22.878;2023-04-01T03:51:29;99738.72;;;14.17;60.02
6567;BME280;3317;43.994;22.878;2023-04-01T03:53:56;99743.78;;;14.27;59.05
6567;BME280;3317;43.994;22.878;2023-04-01T03:56:22;99741.09;;;14.34;58.33
6567;BME280;3317;43.994;22.878;2023-04-01T03:58:50;99741.56;;;14.44;57.97
6567;BME280;3317;43.994;22.878;2023-04-01T04:01:20;99733.41;;;14.51;57.19
6567;BME280;3317;43.994;22.878;2023-04-01T04:03:47;99730.28;;;14.61;57.13
6567;BME280;3317;43.994;22.878;2023-04-01T04:06:16;99713.53;;;14.64;56.03
6567;BME280;3317;43.994;22.878;2023-04-01T04:08:43;99719.44;;;14.74;55.18
6567;BME280;3317;43.994;22.878;2023-04-01T04:11:11;99729.31;;;14.82;55.01
6567;BME280;3317;43.994;22.878;2023-04-01T04:13:38;99720.50;;;14.87;55.13
6567;BME280;3317;43.994;22.878;2023-04-01T04:16:05;99726.84;;;14.94;56.00
6567;BME280;3317;43.994;22.878;2023-04-01T04:18:34;99731.03;;;14.97;54.83
6567;BME280;3317;43.994;22.878;2023-04-01T04:21:01;99718.84;;;14.99;55.87
6567;BME280;3317;43.994;22.878;2023-04-01T04:23:28;99720.53;;;15.00;57.11
6567;BME280;3317;43.994;22.878;2023-04-01T04:25:57;99728.09;;;14.98;57.58
6567;BME280;3317;43.994;22.878;2023-04-01T04:28:25;99716.53;;;14.83;58.08
6567;BME280;3317;43.994;22.878;2023-04-01T04:30:53;99723.44;;;14.72;59.55
6567;BME280;3317;43.994;22.878;2023-04-01T04:33:20;99733.84;;;14.55;60.46
6567;BME280;3317;43.994;22.878;2023-04-01T04:35:49;99724.00;;;14.54;59.53
6567;BME280;3317;43.994;22.878;2023-04-01T04:38:16;99727.78;;;14.59;59.57
6567;BME280;3317;43.994;22.878;2023-04-01T04:40:44;99711.63;;;14.64;59.45
6567;BME280;3317;43.994;22.878;2023-04-01T04:43:12;99706.19;;;14.71;58.05
6567;BME280;3317;43.994;22.878;2023-04-01T04:45:39;99682.28;;;14.67;56.91
6567;BME280;3317;43.994;22.878;2023-04-01T04:48:07;99699.97;;;14.77;56.52
6567;BME280;3317;43.994;22.878;2023-04-01T04:50:35;99694.72;;;14.83;56.30
6567;BME280;3317;43.994;22.878;2023-04-01T04:53:03;99703.34;;;14.86;57.25
6567;BME280;3317;43.994;22.878;2023-04-01T04:55:30;99686.75;;;14.88;56.48
6567;BME280;3317;43.994;22.878;2023-04-01T04:57:57;99688.66;;;14.94;56.21
6567;BME280;3317;43.994;22.878;2023-04-01T05:00:24;99688.22;;;14.97;55.81
6567;BME280;3317;43.994;22.878;2023-04-01T05:02:51;99683.63;;;14.98;55.10
6567;BME280;3317;43.994;22.878;2023-04-01T05:05:18;99678.78;;;15.00;54.12
6567;BME280;3317;43.994;22.878;2023-04-01T05:07:45;99676.50;;;15.03;54.98
6567;BME280;3317;43.994;22.878;2023-04-01T05:10:13;99685.94;;;15.07;55.03
6567;BME280;3317;43.994;22.878;2023-04-01T05:12:40;99676.69;;;15.02;55.77
6567;BME280;3317;43.994;22.878;2023-04-01T05:15:08;99677.94;;;15.06;58.91
6567;BME280;3317;43.994;22.878;2023-04-01T05:17:35;99678.56;;;15.08;59.81
6567;BME280;3317;43.994;22.878;2023-04-01T05:20:03;99697.03;;;15.13;55.84
6567;BME280;3317;43.994;22.878;2023-04-01T05:22:30;99700.63;;;15.13;55.86
6567;BME280;3317;43.994;22.878;2023-04-01T05:24:56;99701.66;;;15.05;58.69
6567;BME280;3317;43.994;22.878;2023-04-01T05:27:25;99700.81;;;14.98;61.54
6567;BME280;3317;43.994;22.878;2023-04-01T05:29:52;99698.31;;;14.83;63.23
6567;BME280;3317;43.994;22.878;2023-04-01T05:32:19;99690.25;;;14.68;64.30
6567;BME280;3317;43.994;22.878;2023-04-01T05:34:45;99677.41;;;14.48;65.29
6567;BME280;3317;43.994;22.878;2023-04-01T05:37:12;99673.19;;;14.32;65.65
6567;BME280;3317;43.994;22.878;2023-04-01T05:39:40;99672.72;;;14.15;66.16
6567;BME280;3317;43.994;22.878;2023-04-01T05:42:07;99679.19;;;14.14;66.69
6567;BME280;3317;43.994;22.878;2023-04-01T05:44:35;99665.59;;;14.14;64.36
6567;BME280;3317;43.994;22.878;2023-04-01T05:47:04;99682.97;;;14.13;65.00
6567;BME280;3317;43.994;22.878;2023-04-01T05:49:31;99619.72;;;13.69;66.53
6567;BME280;3317;43.994;22.878;2023-04-01T05:51:59;99693.66;;;14.15;66.72
6567;BME280;3317;43.994;22.878;2023-04-01T05:54:26;99701.44;;;14.18;67.04
6567;BME280;3317;43.994;22.878;2023-04-01T05:56:53;99703.94;;;14.19;65.67
6567;BME280;3317;43.994;22.878;2023-04-01T05:59:20;99699.56;;;14.25;64.88
6567;BME280;3317;43.994;22.878;2023-04-01T06:01:48;99710.50;;;14.32;62.99
6567;BME280;3317;43.994;22.878;2023-04-01T06:04:17;99714.06;;;14.32;63.77
6567;BME280;3317;43.994;22.878;2023-04-01T06:06:44;99729.16;;;14.35;63.32
6567;BME280;3317;43.994;22.878;2023-04-01T06:09:13;99731.06;;;14.41;61.55
6567;BME280;3317;43.994;22.878;2023-04-01T06:11:51;99731.09;;;14.48;60.35
6567;BME280;3317;43.994;22.878;2023-04-01T06:14:32;99740.09;;;14.48;60.02
6567;BME280;3317;43.994;22.878;2023-04-01T06:17:16;99739.28;;;14.48;60.52
6567;BME280;3317;43.994;22.878;2023-04-01T06:19:50;99746.84;;;14.53;62.61
6567;BME280;3317;43.994;22.878;2023-04-01T06:22:46;99754.41;;;14.57;63.82
6567;BME280;3317;43.994;22.878;2023-04-01T06:25:35;99772.22;;;14.60;62.73
6567;BME280;3317;43.994;22.878;2023-04-01T06:28:30;99778.97;;;14.64;63.26
6567;BME280;3317;43.994;22.878;2023-04-01T06:31:06;99776.25;;;14.64;62.62
6567;BME280;3317;43.994;22.878;2023-04-01T06:33:48;99786.31;;;14.70;66.48
6567;BME280;3317;43.994;22.878;2023-04-01T06:36:31;99794.50;;;14.70;66.96
6567;BME280;3317;43.994;22.878;2023-04-01T06:44:55;99822.69;;;14.77;67.92
6567;BME280;3317;43.994;22.878;2023-04-01T06:47:36;99815.56;;;14.76;68.99
6567;BME280;3317;43.994;22.878;2023-04-01T06:50:17;99829.19;;;14.76;69.61
6567;BME280;3317;43.994;22.878;2023-04-01T06:52:51;99821.19;;;14.75;69.13
6567;BME280;3317;43.994;22.878;2023-04-01T06:55:27;99830.00;;;14.77;68.78
6567;BME280;3317;43.994;22.878;2023-04-01T06:57:59;99827.91;;;14.79;67.73
6567;BME280;3317;43.994;22.878;2023-04-01T07:00:30;99841.78;;;14.77;64.36
6567;BME280;3317;43.994;22.878;2023-04-01T07:03:05;99835.28;;;14.78;65.48
6567;BME280;3317;43.994;22.878;2023-04-01T07:05:35;99832.53;;;14.78;63.84
6567;BME280;3317;43.994;22.878;2023-04-01T07:08:04;99845.75;;;14.82;63.38
6567;BME280;3317;43.994;22.878;2023-04-01T07:10:39;99846.59;;;14.82;65.23
6567;BME280;3317;43.994;22.878;2023-04-01T07:13:14;99837.16;;;14.85;65.78
6567;BME280;3317;43.994;22.878;2023-04-01T07:15:48;99842.00;;;14.83;64.26
6567;BME280;3317;43.994;22.878;2023-04-01T07:18:19;99847.63;;;14.81;65.32
6567;BME280;3317;43.994;22.878;2023-04-01T07:20:51;99841.34;;;14.81;63.81
6567;BME280;3317;43.994;22.878;2023-04-01T07:23:23;99840.94;;;14.84;65.22
6567;BME280;3317;43.994;22.878;2023-04-01T07:25:53;99830.88;;;14.84;66.87
6567;BME280;3317;43.994;22.878;2023-04-01T07:28:22;99827.50;;;14.82;67.88
6567;BME280;3317;43.994;22.878;2023-04-01T07:30:58;99819.97;;;14.84;70.94
6567;BME280;3317;43.994;22.878;2023-04-01T07:33:35;99813.47;;;14.85;72.72
6567;BME280;3317;43.994;22.878;2023-04-01T07:36:12;99803.16;;;14.74;72.16
6567;BME280;3317;43.994;22.878;2023-04-01T07:38:49;99775.16;;;14.52;71.74
6567;BME280;3317;43.994;22.878;2023-04-01T07:41:30;99756.78;;;14.25;72.78
6567;BME280;3317;43.994;22.878;2023-04-01T07:44:06;99731.16;;;14.13;73.99
6567;BME280;3317;43.994;22.878;2023-04-01T07:49:54;99709.22;;;13.86;76.00
6567;BME280;3317;43.994;22.878;2023-04-01T07:52:31;99696.41;;;13.73;76.69
6567;BME280;3317;43.994;22.878;2023-04-01T07:55:06;99694.25;;;13.68;78.61
6567;BME280;3317;43.994;22.878;2023-04-01T07:57:40;99694.44;;;13.66;78.89
6567;BME280;3317;43.994;22.878;2023-04-01T08:00:16;99697.22;;;13.73;79.46
6567;BME280;3317;43.994;22.878;2023-04-01T08:02:58;99694.09;;;13.76;79.23
6567;BME280;3317;43.994;22.878;2023-04-01T08:05:34;99668.28;;;13.65;79.82
6567;BME280;3317;43.994;22.878;2023-04-01T08:08:14;99672.28;;;13.70;79.62
6567;BME280;3317;43.994;22.878;2023-04-01T08:10:49;99663.03;;;13.64;80.08
6567;BME280;3317;43.994;22.878;2023-04-01T08:13:28;99655.00;;;13.49;81.26
6567;BME280;3317;43.994;22.878;2023-04-01T08:16:06;99651.41;;;13.48;81.72
6567;BME280;3317;43.994;22.878;2023-04-01T08:18:41;99655.63;;;13.51;81.81
6567;BME280;3317;43.994;22.878;2023-04-01T08:21:15;99656.25;;;13.53;82.41
6567;BME280;3317;43.994;22.878;2023-04-01T08:23:48;99635.34;;;13.54;82.40
6567;BME280;3317;43.994;22.878;2023-04-01T08:26:22;99642.72;;;13.66;81.49
6567;BME280;3317;43.994;22.878;2023-04-01T08:28:59;99653.50;;;13.82;78.12
6567;BME280;3317;43.994;22.878;2023-04-01T08:31:31;99659.81;;;13.89;77.95
6567;BME280;3317;43.994;22.878;2023-04-01T08:34:02;99651.91;;;14.01;78.61
6567;BME280;3317;43.994;22.878;2023-04-01T08:36:33;99624.66;;;14.01;76.90
6567;BME280;3317;43.994;22.878;2023-04-01T08:39:07;99651.97;;;14.14;77.58
6567;BME280;3317;43.994;22.878;2023-04-01T08:42:03;99659.13;;;14.29;76.81
6567;BME280;3317;43.994;22.878;2023-04-01T08:50:43;99628.09;;;14.23;77.29
6567;BME280;3317;43.994;22.878;2023-04-01T08:53:22;99646.72;;;14.19;78.09
6567;BME280;3317;43.994;22.878;2023-04-01T08:56:01;99637.03;;;14.10;78.43
6567;BME280;3317;43.994;22.878;2023-04-01T08:58:52;99677.94;;;14.17;77.74
6567;BME280;3317;43.994;22.878;2023-04-01T09:01:34;99660.56;;;14.18;77.20
6567;BME280;3317;43.994;22.878;2023-04-01T09:04:21;99662.66;;;14.22;78.52
6567;BME280;3317;43.994;22.878;2023-04-01T09:06:55;99672.75;;;14.29;76.16
6567;BME280;3317;43.994;22.878;2023-04-01T09:10:00;99647.00;;;14.38;75.57
6567;BME280;3317;43.994;22.878;2023-04-01T09:12:51;99648.69;;;14.39;77.22
6567;BME280;3317;43.994;22.878;2023-04-01T09:18:58;99640.94;;;14.56;71.23
6567;BME280;3317;43.994;22.878;2023-04-01T09:21:37;99648.72;;;14.53;74.96
6567;BME280;3317;43.994;22.878;2023-04-01T09:24:24;99656.28;;;14.57;73.00
6567;BME280;3317;43.994;22.878;2023-04-01T09:27:04;99634.03;;;14.60;73.48
6567;BME280;3317;43.994;22.878;2023-04-01T09:29:59;99629.63;;;14.53;75.40
6567;BME280;3317;43.994;22.878;2023-04-01T09:32:48;99645.56;;;14.56;75.10
6567;BME280;3317;43.994;22.878;2023-04-01T09:35:23;99644.31;;;14.58;74.99
6567;BME280;3317;43.994;22.878;2023-04-01T09:37:54;99653.13;;;14.67;72.00
6567;BME280;3317;43.994;22.878;2023-04-01T09:40:33;99650.00;;;14.70;71.00
6567;BME280;3317;43.994;22.878;2023-04-01T09:43:21;99640.16;;;14.76;70.30
6567;BME280;3317;43.994;22.878;2023-04-01T09:49:06;99613.94;;;14.82;71.26
6567;BME280;3317;43.994;22.878;2023-04-01T09:51:42;99597.59;;;14.82;72.25
6567;BME280;3317;43.994;22.878;2023-04-01T09:54:21;99583.31;;;14.86;74.24
6567;BME280;3317;43.994;22.878;2023-04-01T09:57:24;99570.50;;;14.87;75.70
6567;BME280;3317;43.994;22.878;2023-04-01T10:00:20;99553.50;;;14.91;76.35
6567;BME280;3317;43.994;22.878;2023-04-01T10:03:35;99534.66;;;14.76;75.60
6567;BME280;3317;43.994;22.878;2023-04-01T10:06:43;99579.09;;;14.97;76.04
6567;BME280;3317;43.994;22.878;2023-04-01T10:09:42;99589.84;;;14.85;75.33
6567;BME280;3317;43.994;22.878;2023-04-01T10:12:58;99609.09;;;15.11;74.02
6567;BME280;3317;43.994;22.878;2023-04-01T10:18:51;99604.25;;;15.19;73.33
6567;BME280;3317;43.994;22.878;2023-04-01T10:21:37;99598.38;;;15.29;72.01
6567;BME280;3317;43.994;22.878;2023-04-01T10:24:40;99597.09;;;15.32;72.60
6567;BME280;3317;43.994;22.878;2023-04-01T10:30:32;99576.09;;;15.39;72.47
6567;BME280;3317;43.994;22.878;2023-04-01T10:33:23;99562.63;;;15.44;72.05
6567;BME280;3317;43.994;22.878;2023-04-01T10:39:33;99545.41;;;15.51;71.54
6567;BME280;3317;43.994;22.878;2023-04-01T10:42:31;99544.38;;;15.45;71.46
6567;BME280;3317;43.994;22.878;2023-04-01T10:45:22;99558.25;;;15.37;71.16
6567;BME280;3317;43.994;22.878;2023-04-01T10:48:13;99558.69;;;15.33;70.78
6567;BME280;3317;43.994;22.878;2023-04-01T10:51:10;99564.78;;;15.35;70.91
6567;BME280;3317;43.994;22.878;2023-04-01T10:53:46;99564.94;;;15.41;69.59
6567;BME280;3317;43.994;22.878;2023-04-01T10:56:43;99549.63;;;15.40;69.50
6567;BME280;3317;43.994;22.878;2023-04-01T11:02:56;99559.69;;;15.53;72.95
6567;BME280;3317;43.994;22.878;2023-04-01T11:15:12;99528.13;;;15.63;70.49
6567;BME280;3317;43.994;22.878;2023-04-01T11:27:29;99511.28;;;15.73;69.06
6567;BME280;3317;43.994;22.878;2023-04-01T11:30:24;99499.06;;;15.76;68.32
6567;BME280;3317;43.994;22.878;2023-04-01T11:33:01;99489.97;;;15.89;68.11
6567;BME280;3317;43.994;22.878;2023-04-01T11:35:59;99491.44;;;15.91;66.31
6567;BME280;3317;43.994;22.878;2023-04-01T11:38:46;99481.56;;;15.90;65.51
6567;BME280;3317;43.994;22.878;2023-04-01T11:41:26;99477.78;;;15.91;64.93
6567;BME280;3317;43.994;22.878;2023-04-01T11:44:11;99475.06;;;15.91;64.79
6567;BME280;3317;43.994;22.878;2023-04-01T11:49:45;99460.31;;;15.99;62.92
6567;BME280;3317;43.994;22.878;2023-04-01T11:52:24;99448.94;;;16.02;62.62
6567;BME280;3317;43.994;22.878;2023-04-01T11:55:10;99467.22;;;16.02;62.28
6567;BME280;3317;43.994;22.878;2023-04-01T12:04:17;99449.59;;;15.98;62.78
6567;BME280;3317;43.994;22.878;2023-04-01T12:06:59;99431.63;;;16.09;61.93
6567;BME280;3317;43.994;22.878;2023-04-01T12:09:37;99443.69;;;16.01;62.38
6567;BME280;3317;43.994;22.878;2023-04-01T12:12:18;99424.09;;;16.04;62.11
6567;BME280;3317;43.994;22.878;2023-04-01T12:14:54;99420.66;;;16.15;61.40
6567;BME280;3317;43.994;22.878;2023-04-01T12:17:36;99422.50;;;16.22;61.22
6567;BME280;3317;43.994;22.878;2023-04-01T12:20:34;99418.41;;;16.31;61.04
6567;BME280;3317;43.994;22.878;2023-04-01T12:23:21;99404.94;;;16.36;60.78
6567;BME280;3317;43.994;22.878;2023-04-01T12:26:15;99405.31;;;16.40;59.87
6567;BME280;3317;43.994;22.878;2023-04-01T12:28:58;99415.13;;;16.47;59.87
6567;BME280;3317;43.994;22.878;2023-04-01T12:31:36;99416.50;;;16.57;59.18
6567;BME280;3317;43.994;22.878;2023-04-01T12:37:13;99415.16;;;16.85;58.74
6567;BME280;3317;43.994;22.878;2023-04-01T12:40:01;99413.78;;;16.94;58.44
6567;BME280;3317;43.994;22.878;2023-04-01T12:42:44;99417.53;;;17.00;58.64
6567;BME280;3317;43.994;22.878;2023-04-01T12:45:31;99408.81;;;17.10;58.33
6567;BME280;3317;43.994;22.878;2023-04-01T12:48:17;99405.00;;;17.11;57.86
6567;BME280;3317;43.994;22.878;2023-04-01T12:51:14;99405.81;;;17.11;57.45
6567;BME280;3317;43.994;22.878;2023-04-01T12:54:06;99407.66;;;17.17;57.33
6567;BME280;3317;43.994;22.878;2023-04-01T12:56:44;99410.75;;;17.21;57.38
6567;BME280;3317;43.994;22.878;2023-04-01T12:59:27;99414.25;;;17.28;57.01
6567;BME280;3317;43.994;22.878;2023-04-01T13:02:11;99419.25;;;17.31;57.03
6567;BME280;3317;43.994;22.878;2023-04-01T13:05:06;99410.13;;;17.38;56.84
6567;BME280;3317;43.994;22.878;2023-04-01T13:08:10;99415.94;;;17.41;56.43
6567;BME280;3317;43.994;22.878;2023-04-01T13:10:47;99416.91;;;17.47;56.47
6567;BME280;3317;43.994;22.878;2023-04-01T13:13:47;99408.16;;;17.57;56.46
6567;BME280;3317;43.994;22.878;2023-04-01T13:16:21;99419.84;;;17.64;56.50
6567;BME280;3317;43.994;22.878;2023-04-01T13:18:58;99419.63;;;17.66;56.31
6567;BME280;3317;43.994;22.878;2023-04-01T13:21:34;99410.34;;;17.67;56.30
6567;BME280;3317;43.994;22.878;2023-04-01T13:24:15;99415.50;;;17.75;55.63
6567;BME280;3317;43.994;22.878;2023-04-01T13:26:55;99414.06;;;17.84;55.40
6567;BME280;3317;43.994;22.878;2023-04-01T13:29:30;99403.00;;;17.91;55.27
6567;BME280;3317;43.994;22.878;2023-04-01T13:32:13;99399.09;;;17.99;56.18
6567;BME280;3317;43.994;22.878;2023-04-01T13:34:52;99397.34;;;18.05;55.49
6567;BME280;3317;43.994;22.878;2023-04-01T13:37:31;99400.44;;;18.08;55.24
6567;BME280;3317;43.994;22.878;2023-04-01T13:43:10;99421.06;;;18.23;55.41
6567;BME280;3317;43.994;22.878;2023-04-01T13:45:57;99414.53;;;18.24;55.09
6567;BME280;3317;43.994;22.878;2023-04-01T13:48:44;99409.16;;;18.17;53.77
6567;BME280;3317;43.994;22.878;2023-04-01T13:51:43;99412.47;;;18.07;53.89
6567;BME280;3317;43.994;22.878;2023-04-01T13:54:28;99421.56;;;18.08;53.35
6567;BME280;3317;43.994;22.878;2023-04-01T13:57:14;99431.44;;;18.09;53.82
6567;BME280;3317;43.994;22.878;2023-04-01T14:00:05;99434.88;;;18.04;54.13
6567;BME280;3317;43.994;22.878;2023-04-01T14:02:57;99438.22;;;18.06;54.19
6567;BME280;3317;43.994;22.878;2023-04-01T14:05:44;99438.22;;;18.06;54.41
6567;BME280;3317;43.994;22.878;2023-04-01T14:08:25;99445.94;;;17.97;55.22
6567;BME280;3317;43.994;22.878;2023-04-01T14:11:01;99455.75;;;17.86;56.67
6567;BME280;3317;43.994;22.878;2023-04-01T14:13:37;99478.03;;;17.78;58.78
6567;BME280;3317;43.994;22.878;2023-04-01T14:16:41;99472.66;;;17.71;57.06
6567;BME280;3317;43.994;22.878;2023-04-01T14:19:20;99466.03;;;17.60;57.18
6567;BME280;3317;43.994;22.878;2023-04-01T14:21:58;99462.56;;;17.53;57.71
6567;BME280;3317;43.994;22.878;2023-04-01T14:24:42;99453.47;;;17.41;58.70
6567;BME280;3317;43.994;22.878;2023-04-01T14:30:31;99456.53;;;17.14;63.85
6567;BME280;3317;43.994;22.878;2023-04-01T14:33:09;99469.72;;;16.98;64.28
6567;BME280;3317;43.994;22.878;2023-04-01T14:35:49;99482.50;;;16.86;65.74
6567;BME280;3317;43.994;22.878;2023-04-01T14:38:28;99500.03;;;16.78;64.90
6567;BME280;3317;43.994;22.878;2023-04-01T14:41:05;99490.50;;;16.62;65.67
6567;BME280;3317;43.994;22.878;2023-04-01T14:44:01;99539.66;;;16.69;66.81
6567;BME280;3317;43.994;22.878;2023-04-01T14:47:04;99559.13;;;16.54;68.39
6567;BME280;3317;43.994;22.878;2023-04-01T14:49:37;99535.34;;;16.29;69.19
6567;BME280;3317;43.994;22.878;2023-04-01T14:52:11;99548.19;;;16.28;69.60
6567;BME280;3317;43.994;22.878;2023-04-01T14:54:42;99540.09;;;16.15;70.43
6567;BME280;3317;43.994;22.878;2023-04-01T14:57:13;99544.69;;;16.14;71.02
6567;BME280;3317;43.994;22.878;2023-04-01T14:59:48;99539.88;;;16.10;71.57
6567;BME280;3317;43.994;22.878;2023-04-01T15:02:46;99535.13;;;15.98;72.36
6567;BME280;3317;43.994;22.878;2023-04-01T15:05:30;99524.22;;;15.91;71.79
6567;BME280;3317;43.994;22.878;2023-04-01T15:08:06;99517.50;;;15.87;71.97
6567;BME280;3317;43.994;22.878;2023-04-01T15:10:59;99516.28;;;15.83;72.34
6567;BME280;3317;43.994;22.878;2023-04-01T15:16:46;99504.13;;;15.72;72.11